createdAt,value
2023-01-06T00:01:50.347Z,23.35
2023-01-06T00:04:18.833Z,27.20
2023-01-06T00:06:47.116Z,24.52
2023-01-06T00:09:15.476Z,24.42
2023-01-06T00:11:43.697Z,22.55
2023-01-06T00:14:12.095Z,21.80
2023-01-06T00:16:40.364Z,25.35
2023-01-06T00:19:12.678Z,26.77
2023-01-06T00:21:42.496Z,22.83
2023-01-06T00:24:11.905Z,22.50
2023-01-06T00:26:40.438Z,22.45
2023-01-06T00:29:10.947Z,22.40
2023-01-06T00:31:39.639Z,20.48
2023-01-06T00:34:10.934Z,24.58
2023-01-06T00:36:39.235Z,23.17
2023-01-06T00:39:07.543Z,21.05
2023-01-06T00:41:53.010Z,22.15
2023-01-06T00:44:21.263Z,23.42
2023-01-06T00:46:49.599Z,21.52
2023-01-06T00:49:19.232Z,21.38
2023-01-06T00:51:47.562Z,20.52
2023-01-06T00:54:16.738Z,19.58
2023-01-06T00:56:46.633Z,22.25
2023-01-06T00:59:16.441Z,21.85
2023-01-06T01:01:45.927Z,22.45
2023-01-06T01:04:14.661Z,21.40
2023-01-06T01:06:45.449Z,20.70
2023-01-06T01:09:16.200Z,22.75
2023-01-06T01:12:02.118Z,19.58
2023-01-06T01:14:30.872Z,19.95
2023-01-06T01:16:59.386Z,21.73
2023-01-06T01:19:28.648Z,19.05
2023-01-06T01:21:58.204Z,20.35
2023-01-06T01:24:26.489Z,18.65
2023-01-06T01:26:54.763Z,18.45
2023-01-06T01:29:23.251Z,19.50
2023-01-06T01:31:51.945Z,19.50
2023-01-06T01:34:20.366Z,18.77
2023-01-06T01:36:49.914Z,21.73
2023-01-06T01:39:21.859Z,19.05
2023-01-06T01:41:50.905Z,20.23
2023-01-06T01:44:55.217Z,17.27
2023-01-06T01:47:31.024Z,17.05
2023-01-06T01:50:03.043Z,20.05
2023-01-06T01:52:31.435Z,17.55
2023-01-06T01:55:01.904Z,16.42
2023-01-06T01:57:36.413Z,17.27
2023-01-06T02:00:07.370Z,16.27
2023-01-06T02:02:36.174Z,15.93
2023-01-06T02:05:06.399Z,18.40
2023-01-06T02:07:34.878Z,18.17
2023-01-06T02:10:12.355Z,17.70
2023-01-06T02:12:41.385Z,16.70
2023-01-06T02:15:17.693Z,16.38
2023-01-06T02:18:13.049Z,17.23
2023-01-06T02:21:00.186Z,15.65
2023-01-06T02:24:02.901Z,16.55
2023-01-06T02:26:57.545Z,19.65
2023-01-06T02:30:22.136Z,17.95
2023-01-06T02:33:02.036Z,16.10
2023-01-06T02:35:47.641Z,15.65
2023-01-06T02:38:28.866Z,15.88
2023-01-06T02:43:44.871Z,17.25
2023-01-06T02:46:23.403Z,15.60
2023-01-06T02:49:01.736Z,18.35
2023-01-06T02:51:37.628Z,17.17
2023-01-06T02:54:21.903Z,16.70
2023-01-06T02:56:55.513Z,16.40
2023-01-06T02:59:28.188Z,15.18
2023-01-06T03:01:57.986Z,16.48
2023-01-06T03:04:31.691Z,15.23
2023-01-06T03:07:02.505Z,14.75
2023-01-06T03:09:34.907Z,14.63
2023-01-06T03:12:07.807Z,13.70
2023-01-06T03:14:40.275Z,14.88
2023-01-06T03:17:08.813Z,15.48
2023-01-06T03:19:38.567Z,14.18
2023-01-06T03:22:09.707Z,17.75
2023-01-06T03:24:38.733Z,15.63
2023-01-06T03:27:08.071Z,14.90
2023-01-06T03:29:37.260Z,18.83
2023-01-06T03:32:14.074Z,15.20
2023-01-06T03:34:59.352Z,15.70
2023-01-06T03:37:36.766Z,15.32
2023-01-06T03:40:11.003Z,14.80
2023-01-06T03:43:00.657Z,14.07
2023-01-06T03:45:45.066Z,15.95
2023-01-06T03:48:19.483Z,14.15
2023-01-06T03:50:52.902Z,13.23
2023-01-06T03:53:30.695Z,14.40
2023-01-06T03:56:14.047Z,12.43
2023-01-06T03:58:42.929Z,14.90
2023-01-06T04:01:12.581Z,14.95
2023-01-06T04:03:41.476Z,16.17
2023-01-06T04:06:11.120Z,15.77
2023-01-06T04:08:39.416Z,14.23
2023-01-06T04:11:07.688Z,14.32
2023-01-06T04:13:34.928Z,15.63
2023-01-06T04:16:03.221Z,15.68
2023-01-06T04:18:31.607Z,15.50
2023-01-06T04:20:59.862Z,15.30
2023-01-06T04:23:33.074Z,14.82
2023-01-06T04:26:01.393Z,16.02
2023-01-06T04:28:29.882Z,14.35
2023-01-06T04:30:59.278Z,15.68
2023-01-06T04:33:27.675Z,13.80
2023-01-06T04:35:55.969Z,14.23
2023-01-06T04:38:24.149Z,15.10
2023-01-06T04:40:53.853Z,13.70
2023-01-06T04:43:22.041Z,13.30
2023-01-06T04:45:50.672Z,15.20
2023-01-06T04:48:19.024Z,13.10
2023-01-06T04:50:47.202Z,15.13
2023-01-06T04:53:15.561Z,14.43
2023-01-06T04:55:43.748Z,13.30
2023-01-06T04:58:13.432Z,12.90
2023-01-06T05:00:41.867Z,12.55
2023-01-06T05:03:10.147Z,14.38
2023-01-06T05:05:39.768Z,13.35
2023-01-06T05:08:07.958Z,12.75
2023-01-06T05:10:36.263Z,12.82
2023-01-06T05:13:04.538Z,12.88
2023-01-06T05:15:34.208Z,11.70
2023-01-06T05:18:02.490Z,12.27
2023-01-06T05:20:30.766Z,12.45
2023-01-06T05:22:59.196Z,14.20
2023-01-06T05:25:27.451Z,12.48
2023-01-06T05:27:55.796Z,12.13
2023-01-06T05:30:23.917Z,12.65
2023-01-06T05:32:53.643Z,13.50
2023-01-06T05:35:21.794Z,13.40
2023-01-06T05:37:49.980Z,11.60
2023-01-06T05:40:18.533Z,13.73
2023-01-06T05:42:46.991Z,11.60
2023-01-06T05:45:15.295Z,11.82
2023-01-06T05:47:43.689Z,12.68
2023-01-06T05:50:13.548Z,11.95
2023-01-06T05:52:41.876Z,11.75
2023-01-06T05:55:11.257Z,12.27
2023-01-06T05:57:39.556Z,10.95
2023-01-06T06:00:09.635Z,12.55
2023-01-06T06:02:37.986Z,11.23
2023-01-06T06:05:06.684Z,13.40
2023-01-06T06:07:36.348Z,12.40
2023-01-06T06:10:05.688Z,12.98
2023-01-06T06:12:34.525Z,11.90
2023-01-06T06:15:02.885Z,12.93
2023-01-06T06:17:32.628Z,12.43
2023-01-06T06:20:00.836Z,12.32
2023-01-06T06:22:29.238Z,12.07
2023-01-06T06:24:59.000Z,12.30
2023-01-06T06:27:27.321Z,13.98
2023-01-06T06:29:55.589Z,11.63
2023-01-06T06:32:23.843Z,13.13
2023-01-06T06:34:52.096Z,12.55
2023-01-06T06:37:20.433Z,11.90
2023-01-06T06:39:48.636Z,12.55
2023-01-06T06:42:18.284Z,12.82
2023-01-06T06:44:46.584Z,14.27
2023-01-06T06:47:15.968Z,11.52
2023-01-06T06:49:44.149Z,12.73
2023-01-06T06:52:12.588Z,11.45
2023-01-06T06:54:40.831Z,12.25
2023-01-06T06:57:09.062Z,12.85
2023-01-06T06:59:38.621Z,12.75
2023-01-06T07:02:07.669Z,11.38
2023-01-06T07:04:36.119Z,11.93
2023-01-06T07:07:04.344Z,13.07
2023-01-06T07:09:32.665Z,11.20
2023-01-06T07:12:00.946Z,13.73
2023-01-06T07:14:29.365Z,11.73
2023-01-06T07:17:02.080Z,12.20
2023-01-06T07:19:30.237Z,13.05
2023-01-06T07:21:58.605Z,12.68
2023-01-06T07:24:26.947Z,12.68
2023-01-06T07:26:55.320Z,13.63
2023-01-06T07:29:23.600Z,13.07
2023-01-06T07:31:51.992Z,14.27
2023-01-06T07:34:21.915Z,13.10
2023-01-06T07:36:50.338Z,13.45
2023-01-06T07:39:18.641Z,13.43
2023-01-06T07:41:46.995Z,13.50
2023-01-06T07:44:17.183Z,12.70
2023-01-06T07:46:46.166Z,13.98
2023-01-06T07:49:14.390Z,14.30
2023-01-06T07:51:44.180Z,13.85
2023-01-06T07:54:12.471Z,13.32
2023-01-06T07:56:40.734Z,18.10
2023-01-06T07:59:09.194Z,14.40
2023-01-06T08:01:37.627Z,14.35
2023-01-06T08:04:06.296Z,14.38
2023-01-06T08:06:34.653Z,12.60
2023-01-06T08:09:05.058Z,11.60
2023-01-06T08:11:33.294Z,16.85
2023-01-06T08:14:01.561Z,21.75
2023-01-06T08:16:29.897Z,16.73
2023-01-06T08:18:58.312Z,15.88
2023-01-06T08:21:26.673Z,23.77
2023-01-06T08:23:55.018Z,16.10
2023-01-06T08:26:24.790Z,16.48
2023-01-06T08:28:55.255Z,16.92
2023-01-06T08:31:23.987Z,19.10
2023-01-06T08:33:53.607Z,15.60
2023-01-06T08:36:23.845Z,11.82
2023-01-06T08:38:52.578Z,13.83
2023-01-06T08:41:21.262Z,13.63
2023-01-06T08:43:51.257Z,14.80
2023-01-06T08:46:21.390Z,14.35
2023-01-06T08:48:50.197Z,13.43
2023-01-06T08:51:21.189Z,12.57
2023-01-06T08:53:49.339Z,13.98
2023-01-06T08:56:21.512Z,14.38
2023-01-06T08:58:54.404Z,14.57
2023-01-06T09:01:26.138Z,13.45
2023-01-06T09:03:55.552Z,13.95
2023-01-06T09:06:23.831Z,13.05
2023-01-06T09:08:53.793Z,11.43
2023-01-06T09:11:22.623Z,19.42
2023-01-06T09:13:51.643Z,23.17
2023-01-06T09:16:22.717Z,21.58
2023-01-06T09:21:20.671Z,29.70
2023-01-06T09:23:49.382Z,28.90
2023-01-06T09:26:20.152Z,26.42
2023-01-06T09:28:48.552Z,31.00
2023-01-06T09:31:18.371Z,24.88
2023-01-06T09:33:48.559Z,23.67
2023-01-06T09:36:16.766Z,26.95
2023-01-06T09:38:45.104Z,21.77
2023-01-06T09:41:44.181Z,21.67
2023-01-06T09:44:16.202Z,25.35
2023-01-06T09:46:47.123Z,22.70
2023-01-06T09:49:25.889Z,20.95
2023-01-06T09:51:57.771Z,19.70
2023-01-06T09:54:30.519Z,19.75
2023-01-06T09:57:04.154Z,20.20
2023-01-06T09:59:36.544Z,22.25
2023-01-06T10:02:09.505Z,19.23
2023-01-06T10:04:39.115Z,20.30
2023-01-06T10:07:17.651Z,22.80
2023-01-06T10:09:55.512Z,21.77
2023-01-06T10:12:38.992Z,23.70
2023-01-06T10:15:19.702Z,19.75
2023-01-06T10:18:02.677Z,24.63
2023-01-06T10:20:53.497Z,22.38
2023-01-06T10:23:37.137Z,23.45
2023-01-06T10:26:12.426Z,18.90
2023-01-06T10:28:43.928Z,23.17
2023-01-06T10:31:16.394Z,19.88
2023-01-06T10:33:49.764Z,18.83
2023-01-06T10:36:22.209Z,17.33
2023-01-06T10:38:53.545Z,19.05
2023-01-06T10:41:32.799Z,17.77
2023-01-06T10:44:01.114Z,21.75
2023-01-06T10:46:35.243Z,19.52
2023-01-06T10:49:04.068Z,17.02
2023-01-06T10:51:39.193Z,17.58
2023-01-06T10:54:12.004Z,21.90
2023-01-06T10:56:44.692Z,20.42
2023-01-06T10:59:14.166Z,16.13
2023-01-06T11:01:51.034Z,18.30
2023-01-06T11:04:20.088Z,18.08
2023-01-06T11:06:53.217Z,15.52
2023-01-06T11:09:31.681Z,14.90
2023-01-06T11:12:03.367Z,12.85
2023-01-06T11:14:34.146Z,17.33
2023-01-06T11:17:05.110Z,16.77
2023-01-06T11:19:38.508Z,14.60
2023-01-06T11:22:35.354Z,18.27
2023-01-06T11:25:05.500Z,15.27
2023-01-06T11:27:33.846Z,18.27
2023-01-06T11:30:21.995Z,16.23
2023-01-06T11:32:50.313Z,16.58
2023-01-06T11:35:22.372Z,16.15
2023-01-06T11:37:59.789Z,148.95
2023-01-06T11:40:31.903Z,23.80
2023-01-06T11:43:04.361Z,25.10
2023-01-06T11:45:35.944Z,29.30
2023-01-06T11:48:06.629Z,32.75
2023-01-06T11:50:35.479Z,33.70
2023-01-06T11:53:16.393Z,30.60
2023-01-06T11:55:57.683Z,31.40
2023-01-06T11:58:37.398Z,33.67
2023-01-06T12:01:11.387Z,30.30
2023-01-06T12:03:42.739Z,29.35
2023-01-06T12:06:30.817Z,27.65
2023-01-06T12:09:06.246Z,33.85
2023-01-06T12:11:45.086Z,32.40
2023-01-06T12:14:28.042Z,31.30
2023-01-06T12:17:05.615Z,28.27
2023-01-06T12:19:40.552Z,25.17
2023-01-06T12:22:23.101Z,26.15
2023-01-06T12:24:54.186Z,28.40
2023-01-06T12:30:01.486Z,27.38
2023-01-06T12:32:39.586Z,24.48
2023-01-06T12:35:12.681Z,26.92
2023-01-06T12:37:46.592Z,25.27
2023-01-06T12:40:23.417Z,23.25
2023-01-06T12:42:58.011Z,22.55
2023-01-06T12:45:35.177Z,24.70
2023-01-06T12:48:08.982Z,27.15
2023-01-06T12:50:41.278Z,24.27
2023-01-06T12:53:21.008Z,22.55
2023-01-06T12:55:59.850Z,23.48
2023-01-06T12:58:37.212Z,21.48
2023-01-06T13:01:10.582Z,26.20
2023-01-06T13:04:07.896Z,23.63
2023-01-06T13:06:53.550Z,21.55
2023-01-06T13:09:47.743Z,23.77
2023-01-06T13:12:33.697Z,23.10
2023-01-06T13:15:11.778Z,34.40
2023-01-06T13:17:45.858Z,36.92
2023-01-06T13:20:21.441Z,39.60
2023-01-06T13:23:00.249Z,37.15
2023-01-06T13:25:51.327Z,38.33
2023-01-06T13:28:29.199Z,32.05
2023-01-06T13:31:30.894Z,52.15
2023-01-06T13:34:39.397Z,42.60
2023-01-06T13:37:28.471Z,38.88
2023-01-06T13:39:59.256Z,54.90
2023-01-06T13:42:35.669Z,50.40
2023-01-06T13:45:09.181Z,65.22
2023-01-06T13:47:38.245Z,59.05
2023-01-06T13:50:07.869Z,51.08
2023-01-06T13:52:36.303Z,47.80
2023-01-06T13:55:25.233Z,45.63
2023-01-06T13:57:53.619Z,44.45
2023-01-06T14:00:26.996Z,42.72
2023-01-06T14:03:24.069Z,42.53
2023-01-06T14:06:00.050Z,40.35
2023-01-06T14:08:35.912Z,34.88
2023-01-06T14:11:23.454Z,39.08
2023-01-06T14:13:54.028Z,34.80
2023-01-06T14:16:39.416Z,35.42
2023-01-06T14:19:09.699Z,46.53
2023-01-06T14:21:38.189Z,35.50
2023-01-06T14:24:09.053Z,38.75
2023-01-06T14:27:05.329Z,27.73
2023-01-06T14:29:47.475Z,31.33
2023-01-06T14:32:48.908Z,30.27
2023-01-06T14:35:22.527Z,29.80
2023-01-06T14:37:53.100Z,28.40
2023-01-06T14:40:24.892Z,29.55
2023-01-06T14:42:53.910Z,29.20
2023-01-06T14:45:26.730Z,28.83
2023-01-06T14:47:58.343Z,28.38
2023-01-06T14:50:45.532Z,27.88
2023-01-06T14:53:21.968Z,29.27
2023-01-06T14:55:51.785Z,28.17
2023-01-06T14:58:30.091Z,23.70
2023-01-06T15:00:58.856Z,24.98
2023-01-06T15:03:28.551Z,28.00
2023-01-06T15:06:13.313Z,24.88
2023-01-06T15:08:41.585Z,24.42
2023-01-06T15:11:26.310Z,27.90
2023-01-06T15:13:55.044Z,24.40
2023-01-06T15:16:32.364Z,28.63
2023-01-06T15:19:01.943Z,25.90
2023-01-06T15:21:31.705Z,21.40
2023-01-06T15:24:00.174Z,24.15
2023-01-06T15:26:30.482Z,20.77
2023-01-06T15:29:01.974Z,20.63
2023-01-06T15:31:34.003Z,31.42
2023-01-06T15:34:06.964Z,24.30
2023-01-06T15:36:38.917Z,26.00
2023-01-06T15:39:08.082Z,22.98
2023-01-06T15:41:38.830Z,20.90
2023-01-06T15:44:23.801Z,21.27
2023-01-06T15:46:53.842Z,23.58
2023-01-06T15:49:28.934Z,17.92
2023-01-06T15:52:01.063Z,25.60
2023-01-06T15:54:31.157Z,19.83
2023-01-06T15:57:11.560Z,21.45
2023-01-06T15:59:44.228Z,23.80
2023-01-06T16:02:19.781Z,23.60
2023-01-06T16:04:49.213Z,17.05
2023-01-06T16:07:39.418Z,19.02
2023-01-06T16:10:32.972Z,18.20
2023-01-06T16:13:33.447Z,20.42
2023-01-06T16:16:06.197Z,17.50
2023-01-06T16:18:36.665Z,18.25
2023-01-06T16:21:16.824Z,19.67
2023-01-06T16:23:52.602Z,19.52
2023-01-06T16:26:23.068Z,16.58
2023-01-06T16:28:53.959Z,19.85
2023-01-06T16:31:33.743Z,17.65
2023-01-06T16:36:44.775Z,16.75
2023-01-06T16:39:14.512Z,18.02
2023-01-06T16:42:31.456Z,19.63
2023-01-06T16:45:02.551Z,17.75
2023-01-06T16:50:02.147Z,18.02
2023-01-06T16:52:30.357Z,17.58
2023-01-06T16:55:00.112Z,17.67
2023-01-06T16:57:28.435Z,19.33
2023-01-06T16:59:56.624Z,14.43
2023-01-06T17:02:25.092Z,15.50
2023-01-06T17:04:53.876Z,15.55
2023-01-06T17:07:24.124Z,14.77
2023-01-06T17:09:53.604Z,15.38
2023-01-06T17:12:37.109Z,17.08
2023-01-06T17:15:06.512Z,15.32
2023-01-06T17:17:36.267Z,16.85
2023-01-06T17:20:11.269Z,14.80
2023-01-06T17:22:40.622Z,18.48
2023-01-06T17:25:14.000Z,17.33
2023-01-06T17:27:46.036Z,15.75
2023-01-06T17:30:19.881Z,14.55
2023-01-06T17:32:48.961Z,14.85
2023-01-06T17:35:27.211Z,16.35
2023-01-06T17:37:55.787Z,15.90
2023-01-06T17:40:28.908Z,17.30
2023-01-06T17:43:03.772Z,15.82
2023-01-06T17:45:32.389Z,16.10
2023-01-06T17:48:01.026Z,14.88
2023-01-06T17:50:31.427Z,15.30
2023-01-06T17:53:36.023Z,14.33
2023-01-06T17:56:07.099Z,15.88
2023-01-06T18:01:09.733Z,13.73
2023-01-06T18:06:27.275Z,14.57
2023-01-06T18:09:03.087Z,15.70
2023-01-06T18:11:36.163Z,13.13
2023-01-06T18:14:20.125Z,16.75
2023-01-06T18:16:50.083Z,13.10
2023-01-06T18:19:32.004Z,16.70
2023-01-06T18:22:00.355Z,14.18
2023-01-06T18:24:33.739Z,13.75
2023-01-06T18:27:03.878Z,14.82
2023-01-06T18:29:37.031Z,14.77
2023-01-06T18:32:31.691Z,13.93
2023-01-06T18:35:00.962Z,14.10
2023-01-06T18:37:31.316Z,13.35
2023-01-06T18:40:02.025Z,12.67
2023-01-06T18:42:32.802Z,15.10
2023-01-06T18:45:22.863Z,12.50
2023-01-06T18:47:54.631Z,16.67
2023-01-06T18:50:29.573Z,13.10
2023-01-06T18:52:59.366Z,14.18
2023-01-06T18:55:33.884Z,12.20
2023-01-06T18:58:04.814Z,12.50
2023-01-06T19:00:37.930Z,12.75
2023-01-06T19:03:20.247Z,14.63
2023-01-06T19:05:48.723Z,13.40
2023-01-06T19:08:19.431Z,15.10
2023-01-06T19:10:50.366Z,12.48
2023-01-06T19:13:22.545Z,14.25
2023-01-06T19:15:53.584Z,15.35
2023-01-06T19:20:51.793Z,14.10
2023-01-06T19:23:23.933Z,15.38
2023-01-06T19:25:59.963Z,12.05
2023-01-06T19:28:32.401Z,12.93
2023-01-06T19:31:04.224Z,11.63
2023-01-06T19:33:39.937Z,11.90
2023-01-06T19:36:34.567Z,13.75
2023-01-06T19:39:09.306Z,14.93
2023-01-06T19:41:37.643Z,11.95
2023-01-06T19:44:12.874Z,12.60
2023-01-06T19:46:44.749Z,14.57
2023-01-06T19:49:18.752Z,16.40
2023-01-06T19:51:48.722Z,11.65
2023-01-06T19:54:26.174Z,10.65
2023-01-06T19:56:55.774Z,12.00
2023-01-06T19:59:27.183Z,14.15
2023-01-06T20:02:04.312Z,10.55
2023-01-06T20:04:32.797Z,11.45
2023-01-06T20:07:02.216Z,13.63
2023-01-06T20:09:33.227Z,13.48
2023-01-06T20:12:02.122Z,16.35
2023-01-06T20:14:30.339Z,11.40
2023-01-06T20:17:00.397Z,11.02
2023-01-06T20:19:28.750Z,12.13
2023-01-06T20:21:57.035Z,14.23
2023-01-06T20:24:25.215Z,13.82
2023-01-06T20:26:53.551Z,10.60
2023-01-06T20:29:21.784Z,9.52
2023-01-06T20:31:50.185Z,12.30
2023-01-06T20:34:20.080Z,10.10
2023-01-06T20:36:48.367Z,11.85
2023-01-06T20:39:16.629Z,12.18
2023-01-06T20:41:46.235Z,12.35
2023-01-06T20:44:14.586Z,10.90
2023-01-06T20:46:42.922Z,9.73
2023-01-06T20:49:13.088Z,11.88
2023-01-06T20:51:42.883Z,11.23
2023-01-06T20:54:11.122Z,11.30
2023-01-06T20:56:39.367Z,11.90
2023-01-06T20:59:07.707Z,10.63
2023-01-06T21:01:36.122Z,11.50
2023-01-06T21:04:04.452Z,11.13
2023-01-06T21:06:32.746Z,12.25
2023-01-06T21:09:02.896Z,11.20
2023-01-06T21:11:31.097Z,12.83
2023-01-06T21:13:59.277Z,10.25
2023-01-06T21:16:27.660Z,11.23
2023-01-06T21:18:57.507Z,10.45
2023-01-06T21:21:25.882Z,11.32
2023-01-06T21:23:54.117Z,12.05
2023-01-06T21:26:23.780Z,11.20
2023-01-06T21:28:52.019Z,11.07
2023-01-06T21:31:20.249Z,9.57
2023-01-06T21:33:48.495Z,10.88
2023-01-06T21:36:16.889Z,13.10
2023-01-06T21:38:45.211Z,9.18
2023-01-06T21:41:30.777Z,11.77
2023-01-06T21:44:00.507Z,9.73
2023-01-06T21:46:28.674Z,10.70
2023-01-06T21:48:56.963Z,11.38
2023-01-06T21:51:25.574Z,10.55
2023-01-06T21:53:54.284Z,10.82
2023-01-06T21:56:22.615Z,11.27
2023-01-06T21:58:50.917Z,13.30
2023-01-06T22:01:20.968Z,10.65
2023-01-06T22:03:49.440Z,10.02
2023-01-06T22:06:19.468Z,8.77
2023-01-06T22:08:48.409Z,10.55
2023-01-06T22:11:16.973Z,9.27
2023-01-06T22:13:45.336Z,9.38
2023-01-06T22:16:13.904Z,11.02
2023-01-06T22:18:44.274Z,10.25
2023-01-06T22:21:13.074Z,10.20
2023-01-06T22:23:41.799Z,9.90
2023-01-06T22:26:10.035Z,12.02
2023-01-06T22:28:38.272Z,9.35
2023-01-06T22:31:06.964Z,9.15
2023-01-06T22:33:35.257Z,9.57
2023-01-06T22:36:05.439Z,10.55
2023-01-06T22:38:33.788Z,9.50
2023-01-06T22:41:02.100Z,10.60
2023-01-06T22:43:30.468Z,9.93
2023-01-06T22:45:58.853Z,9.50
2023-01-06T22:48:27.250Z,10.95
2023-01-06T22:50:58.771Z,10.48
2023-01-06T22:53:29.216Z,8.52
2023-01-06T22:55:58.866Z,11.05
2023-01-06T22:58:27.550Z,9.65
2023-01-06T23:00:56.045Z,8.98
2023-01-06T23:03:24.608Z,9.40
2023-01-06T23:05:57.671Z,11.13
2023-01-06T23:08:29.131Z,8.90
2023-01-06T23:11:02.008Z,8.23
2023-01-06T23:13:30.658Z,8.70
2023-01-06T23:16:07.770Z,10.82
2023-01-06T23:18:41.071Z,9.27
2023-01-06T23:21:11.255Z,10.57
2023-01-06T23:23:42.984Z,10.20
2023-01-06T23:26:13.649Z,9.65
2023-01-06T23:28:42.894Z,8.57
2023-01-06T23:31:13.298Z,8.35
2023-01-06T23:33:43.806Z,9.48
2023-01-06T23:36:13.768Z,10.00
2023-01-06T23:38:43.994Z,9.20
2023-01-06T23:41:14.360Z,8.63
2023-01-06T23:43:42.843Z,8.90
2023-01-06T23:46:12.750Z,12.05
2023-01-06T23:48:41.488Z,8.90
2023-01-06T23:51:10.615Z,9.00
2023-01-06T23:53:40.057Z,8.88
2023-01-06T23:56:12.725Z,9.05
2023-01-06T23:58:42.324Z,9.90
